createdAt,value
2017-03-23T00:09:31.891Z,7
2017-03-23T00:19:43.090Z,7
2017-03-23T00:29:54.304Z,6.9
2017-03-23T00:40:05.485Z,6.7
2017-03-23T00:50:16.701Z,6.7
2017-03-23T01:00:27.976Z,6.6
2017-03-23T01:10:39.242Z,6.5
2017-03-23T01:20:50.514Z,6.6
2017-03-23T01:31:01.705Z,6.6
2017-03-23T01:41:12.844Z,6.6
2017-03-23T01:51:23.943Z,6.6
2017-03-23T02:01:35.023Z,6.6
2017-03-23T02:11:46.116Z,6.6
2017-03-23T02:21:57.270Z,6.7
2017-03-23T02:32:08.399Z,6.6
2017-03-23T02:42:19.471Z,6.5
2017-03-23T02:52:30.760Z,6.6
2017-03-23T03:02:41.900Z,6.4
2017-03-23T03:12:53.120Z,6.4
2017-03-23T03:23:04.368Z,6.6
2017-03-23T03:33:15.606Z,6.5
2017-03-23T03:43:26.849Z,6.5
2017-03-23T03:53:38.076Z,6.6
2017-03-23T04:03:49.288Z,6.6
2017-03-23T04:14:00.473Z,6.5
2017-03-23T04:24:11.605Z,6.6
2017-03-23T04:34:22.731Z,6.6
2017-03-23T04:44:33.939Z,6.6
2017-03-23T04:54:45.061Z,6.6
2017-03-23T05:04:56.167Z,6.6
2017-03-23T05:15:07.226Z,6.6
2017-03-23T05:25:18.297Z,6.6
2017-03-23T05:35:29.392Z,6.6
2017-03-23T05:45:40.515Z,6.5
2017-03-23T05:55:51.648Z,6.6
2017-03-23T06:06:02.707Z,6.7
2017-03-23T06:16:13.729Z,6.8
2017-03-23T06:26:24.717Z,6.8
2017-03-23T06:36:35.643Z,7
2017-03-23T06:46:46.500Z,7.1
2017-03-23T06:56:57.314Z,7.2
2017-03-23T07:07:07.960Z,7.4
2017-03-23T07:17:18.498Z,7.7
2017-03-23T07:27:28.870Z,7.9
2017-03-23T07:37:38.945Z,8.9
2017-03-23T07:47:48.774Z,8.5
2017-03-23T07:57:58.435Z,9
2017-03-23T08:08:08.058Z,8.7
2017-03-23T08:18:17.833Z,8.6
2017-03-23T08:28:27.598Z,9.4
2017-03-23T08:38:37.224Z,9.4
2017-03-23T08:48:46.729Z,9.6
2017-03-23T08:58:56.079Z,10
2017-03-23T09:09:05.269Z,10
2017-03-23T09:19:14.412Z,10
2017-03-23T09:29:23.519Z,10
2017-03-23T09:39:32.588Z,10.3
2017-03-23T09:49:41.607Z,10
2017-03-23T09:59:50.887Z,10.1
2017-03-23T10:40:28.818Z,10.2
2017-03-23T10:50:38.118Z,11.2
2017-03-23T11:00:47.152Z,10.9
2017-03-23T11:10:56.080Z,11.2
2017-03-23T11:21:05.048Z,11.2
2017-03-23T11:31:13.916Z,12
2017-03-23T11:41:22.601Z,11.9
2017-03-23T11:51:31.310Z,11.9
2017-03-23T12:01:40.122Z,11.6
2017-03-23T12:11:49.094Z,10.8
2017-03-23T12:21:58.176Z,11.2
2017-03-23T12:32:07.479Z,12.2
2017-03-23T12:42:16.331Z,12
2017-03-23T12:52:24.973Z,12.1
2017-03-23T13:02:33.625Z,11.4
2017-03-23T13:12:42.763Z,11.1
2017-03-23T13:22:52.105Z,11.9
2017-03-23T13:33:01.266Z,11.8
2017-03-23T13:43:10.390Z,11.4
2017-03-23T13:53:19.468Z,11.9
2017-03-23T14:03:28.360Z,12.4
2017-03-23T14:13:37.105Z,12.4
2017-03-23T14:23:45.856Z,12
2017-03-23T14:33:54.675Z,11.8
2017-03-23T14:44:03.572Z,12.2
2017-03-23T14:54:12.435Z,11.9
2017-03-23T15:04:21.271Z,12.1
2017-03-23T15:14:30.102Z,11.9
2017-03-23T15:24:39.210Z,11.5
2017-03-23T15:34:48.499Z,11.6
2017-03-23T15:44:57.853Z,11.5
2017-03-23T15:55:07.455Z,11.2
2017-03-23T16:05:17.236Z,11.2
2017-03-23T16:15:27.157Z,11.1
2017-03-23T16:25:37.156Z,11.2
2017-03-23T16:35:47.192Z,11.1
2017-03-23T16:45:57.247Z,10.7
2017-03-23T16:56:07.369Z,10.6
2017-03-23T17:06:17.495Z,10.4
2017-03-23T17:16:27.609Z,10.2
2017-03-23T17:26:37.852Z,10.1
2017-03-23T17:36:48.219Z,9.9
2017-03-23T17:46:58.755Z,9.5
2017-03-23T17:57:09.324Z,9.4
2017-03-23T18:07:19.941Z,9.1
2017-03-23T18:17:30.613Z,8.9
2017-03-23T18:27:41.297Z,8.7
2017-03-23T18:37:52.067Z,8.5
2017-03-23T18:48:02.931Z,8.2
2017-03-23T18:58:13.805Z,8.3
2017-03-23T19:08:24.743Z,8.1
2017-03-23T19:18:35.733Z,7.9
2017-03-23T19:28:46.718Z,7.8
2017-03-23T19:38:57.755Z,7.5
2017-03-23T19:49:08.861Z,7.5
2017-03-23T19:59:19.887Z,7.3
2017-03-23T20:09:30.939Z,7.3
2017-03-23T20:19:42.006Z,7.1
2017-03-23T20:29:53.086Z,7.1
2017-03-23T20:40:04.162Z,7
2017-03-23T20:50:15.222Z,6.9
2017-03-23T21:00:26.289Z,7
2017-03-23T21:10:37.395Z,6.9
2017-03-23T21:20:48.485Z,7
2017-03-23T21:30:59.548Z,7.2
2017-03-23T21:41:10.676Z,7.3
2017-03-23T21:51:21.609Z,7.3
2017-03-23T22:01:32.571Z,7.4
2017-03-23T22:11:43.517Z,7.3
2017-03-23T22:21:54.441Z,7.3
2017-03-23T22:32:05.420Z,7.2
2017-03-23T22:42:16.358Z,7.1
2017-03-23T22:52:27.343Z,7.2
2017-03-23T23:02:38.357Z,7.2
2017-03-23T23:12:49.448Z,7.1
2017-03-23T23:23:00.310Z,7.2
2017-03-23T23:33:11.243Z,7.3
2017-03-23T23:43:22.153Z,7.3
2017-03-23T23:53:33.019Z,7.3
